ADDS METAR Data INFO
IDs: Format: Raw Decoded Include TAF

Data at: 0718 UTC 19 Oct 2017

KROS 190714Z AUTO 23004KT 10SM SCT120 08/M01 A3000 RMK AO2 T00761010
KROS 190654Z AUTO 24005KT 10SM SCT110 08/M01 A3000 RMK AO2 T00801015
KROS 190633Z AUTO 24004KT 10SM SCT110 09/M02 A2999 RMK AO2 T00851021
KROS 190614Z AUTO 24005KT 10SM SCT110 09/M03 A2999 RMK AO2 T00901028
KROS 190554Z AUTO 24003KT 10SM CLR 10/M03 A2998 RMK AO2 T00981032 10137 20097 402150087
KROS 190533Z AUTO 25007KT 10SM SCT110 10/M03 A2998 RMK AO2 T00981034
KROS 190514Z AUTO 26005KT 10SM SCT110 10/M03 A2998 RMK AO2 T00981031
KROS 190454Z AUTO 26007KT 240V310 10SM SCT110 10/M03 A2998 RMK AO2 T00981030
KROS 190434Z AUTO 26007KT 10SM SCT110 10/M03 A2998 RMK AO2 T01001030
KROS 190414Z AUTO 25005KT 10SM SCT110 10/M03 A2998 RMK AO2 T01021027
KROS 190354Z AUTO 25007KT 10SM SCT110 11/M03 A2998 RMK AO2 T01051031
KROS 190333Z AUTO 26006KT 10SM SCT110 11/M02 A2997 RMK AO2 T01051024
KROS 190314Z AUTO 27006KT 10SM SCT110 11/M02 A2997 RMK AO2 T01061022
KROS 190254Z AUTO 26006KT 10SM SCT110 11/M02 A2996 RMK AO2 T01061022
KROS 190233Z AUTO 25005KT 10SM BKN110 11/M02 A2996 RMK AO2 T01111025
KROS 190214Z AUTO 26007KT 10SM SCT110 12/M03 A2994 RMK AO2 T01171029
KROS 190154Z AUTO 26006G15KT 10SM BKN110 12/M03 A2994 RMK AO2 T01201029
KROS 190134Z AUTO 25010KT 10SM BKN120 12/M03 A2993 RMK AO2 T01211031
KROS 190114Z AUTO 26009KT 10SM BKN110 13/M03 A2992 RMK AO2 T01251033
KROS 190053Z AUTO 26008G15KT 230V300 10SM BKN120 13/M03 A2992 RMK AO2 T01261033
KROS 190034Z AUTO 27010KT 10SM BKN120 13/M04 A2991 RMK AO2 T01311037
KROS 190014Z AUTO 27007KT 10SM BKN120 14/M04 A2990 RMK AO2 T01351044
KROS 182353Z AUTO 27007G17KT 10SM BKN120 14/M05 A2990 RMK AO2 T01381048 10215 20138
KROS 182334Z AUTO 28005KT 10SM BKN110 14/M04 A2988 RMK AO2 T01401045
KROS 182314Z AUTO 28005KT 10SM SCT110 15/M05 A2986 RMK AO2 T01461047
KROS 182253Z AUTO 28007G14KT 10SM SCT110 16/M06 A2985 RMK AO2 T01601056
KROS 182234Z AUTO 28007G16KT 220V320 10SM SCT110 17/M05 A2984 RMK AO2 T01651049
KROS 182214Z AUTO 28008KT 10SM CLR 18/M06 A2983 RMK AO2 T01761065
KROS 182154Z AUTO 29012G18KT 10SM CLR 19/M08 A2983 RMK AO2 T01861076
KROS 182134Z AUTO 29011G19KT 10SM CLR 20/M04 A2982 RMK AO2 T01961039
KROS 182114Z AUTO 29011G18KT 240V300 10SM SCT110 20/M03 A2981 RMK AO2 T02041034
KROS 182054Z AUTO 26012G18KT 10SM CLR 20/M03 A2980 RMK AO2 T02041032
KROS 182034Z AUTO 28008G17KT 250V320 10SM CLR 21/00 A2979 RMK AO2 T02110002
KROS 182014Z AUTO 25010G15KT 10SM CLR 21/03 A2978 RMK AO2 T02130032
KROS 181954Z AUTO 24010KT 10SM CLR 21/05 A2978 RMK AO2 T02050051
KROS 181934Z AUTO 24009KT 10SM CLR 20/06 A2980 RMK AO2 T02020061
KROS 181913Z AUTO 25009G14KT 10SM CLR 20/07 A2980 RMK AO2 T01980072
KROS 181854Z AUTO 24007KT 10SM CLR 19/08 A2980 RMK AO2 T01900077
KROS 181834Z AUTO 26006KT 10SM CLR 19/07 A2980 RMK AO2 T01850072
KROS 181813Z AUTO 24008KT 10SM CLR 18/08 A2981 RMK AO2 T01840075
KROS 181754Z AUTO 23007KT 10SM CLR 18/08 A2980 RMK AO2 T01820083 10182 20088
KROS 181734Z AUTO 24008KT 10SM CLR 17/08 A2980 RMK AO2 T01710082
KROS 181713Z AUTO 24011KT 10SM CLR 17/09 A2980 RMK AO2 T01690086
KROS 181654Z AUTO 21009G14KT 10SM CLR 17/09 A2980 RMK AO2 T01650088
KROS 181634Z AUTO 23005KT 10SM CLR 16/08 A2980 RMK AO2 T01580084
KROS 181613Z AUTO 23006KT 10SM CLR 16/08 A2980 RMK AO2 T01570083
KROS 181554Z AUTO 22006KT 10SM CLR 16/08 A2978 RMK AO2 T01610082
KROS 181534Z AUTO 28008KT 260V020 10SM CLR 15/09 A2981 RMK AO2 T01500086
KROS 181514Z AUTO 18007KT 10SM CLR 14/08 A2974 RMK AO2 T01400080
KROS 181454Z AUTO 16009KT 10SM CLR 13/08 A2974 RMK AO2 T01320078
KROS 181434Z AUTO 16010KT 10SM CLR 13/08 A2975 RMK AO2 T01290077
KROS 181414Z AUTO 17008KT 10SM CLR 12/07 A2976 RMK AO2 T01160074
KROS 181354Z AUTO 18009KT 10SM CLR 11/07 A2977 RMK AO2 T01100072
KROS 181334Z AUTO 16010KT 10SM CLR 10/07 A2976 RMK AO2 T00980068
KROS 181314Z AUTO 16007KT 10SM SCT110 10/07 A2978 RMK AO2 T00950065
KROS 181254Z AUTO 17006KT 10SM SCT110 09/07 A2978 RMK AO2 T00900065
KROS 181234Z AUTO 17007KT 10SM SCT120 09/07 A2978 RMK AO2 T00910065
KROS 181214Z AUTO 16007KT 10SM SCT120 09/07 A2978 RMK AO2 T00900065
KROS 181154Z AUTO 17007KT 10SM SCT110 09/07 A2979 RMK AO2 T00890065 10124 20087
KROS 181134Z AUTO 16008KT 10SM SCT110 09/06 A2980 RMK AO2 T00880064
KROS 181114Z AUTO 16007KT 10SM SCT110 09/07 A2981 RMK AO2 T00900065
KROS 181054Z AUTO 17007KT 10SM SCT120 09/07 A2982 RMK AO2 T00900065
KROS 181034Z AUTO 16006KT 10SM SCT110 09/06 A2982 RMK AO2 T00870062
KROS 181014Z AUTO 17004KT 10SM SCT110 09/06 A2983 RMK AO2 T00870062
KROS 180954Z AUTO 16004KT 10SM SCT110 09/06 A2983 RMK AO2 T00890062
KROS 180934Z AUTO 16004KT 10SM SCT110 10/06 A2983 RMK AO2 T00960063
KROS 180914Z AUTO 16005KT 10SM BKN110 09/06 A2983 RMK AO2 T00920061
KROS 180854Z AUTO 17004KT 10SM BKN110 10/06 A2983 RMK AO2 T01000062
KROS 180834Z AUTO 17004KT 10SM BKN110 10/06 A2983 RMK AO2 T01020063
KROS 180814Z AUTO 16005KT 10SM BKN110 10/06 A2983 RMK AO2 T01030063
KROS 180754Z AUTO 17004KT 10SM BKN120 11/06 A2984 RMK AO2 T01070063
KROS 180734Z AUTO 16004KT 10SM BKN120 11/06 A2984 RMK AO2 T01110064
KROS 180714Z AUTO 17005KT 10SM BKN120 12/07 A2984 RMK AO2 T01170065
KROS 180654Z AUTO 17006KT 10SM BKN120 12/07 A2984 RMK AO2 T01200065
KROS 180633Z AUTO 18005KT 10SM BKN110 12/07 A2985 RMK AO2 T01230065
KROS 180614Z AUTO 18007KT 10SM BKN110 12/07 A2985 RMK AO2 T01220065
KROS 180554Z AUTO 17005KT 10SM BKN120 12/06 A2985 RMK AO2 T01150061 10155 20114 402150017
KROS 180534Z AUTO 17004KT 10SM BKN120 12/06 A2986 RMK AO2 T01160060
KROS 180514Z AUTO 18005KT 10SM BKN120 12/06 A2987 RMK AO2 T01230060
KROS 180454Z AUTO 18006KT 10SM BKN120 12/06 A2987 RMK AO2 T01240059
KROS 180434Z AUTO 17005KT 10SM BKN120 13/06 A2987 RMK AO2 T01250057
KROS 180414Z AUTO 17006KT 10SM BKN120 13/06 A2987 RMK AO2 T01310057
KROS 180354Z AUTO 18006KT 10SM BKN120 13/06 A2987 RMK AO2 T01330057
KROS 180334Z AUTO 16006KT 10SM BKN120 13/06 A2988 RMK AO2 T01300056
KROS 180314Z AUTO 16005KT 10SM BKN120 13/06 A2988 RMK AO2 T01300057
KROS 180254Z AUTO 16005KT 10SM BKN120 13/06 A2988 RMK AO2 T01300057
KROS 180234Z AUTO 16005KT 10SM BKN120 13/06 A2989 RMK AO2 T01320060
KROS 180214Z AUTO 16005KT 10SM BKN120 14/06 A2989 RMK AO2 T01350060
KROS 180154Z AUTO 16005KT 10SM BKN120 14/06 A2989 RMK AO2 T01350060
KROS 180134Z AUTO 16005KT 10SM BKN120 14/06 A2989 RMK AO2 T01360060
KROS 180114Z AUTO 16004KT 10SM SCT120 14/06 A2990 RMK AO2 T01370059
KROS 180054Z AUTO 16005KT 10SM BKN120 14/06 A2990 RMK AO2 T01440057
KROS 180034Z AUTO 16004KT 10SM SCT120 15/06 A2991 RMK AO2 T01470056
KROS 180014Z AUTO 16005KT 10SM SCT120 15/06 A2991 RMK AO2 T01490057
KROS 172354Z AUTO 16004KT 10SM SCT120 16/06 A2991 RMK AO2 T01550058 10215 20155
KROS 172334Z AUTO 16004KT 10SM SCT120 16/06 A2991 RMK AO2 T01630057
KROS 172314Z AUTO 17004KT 10SM SCT120 18/06 A2991 RMK AO2 T01790055
KROS 172254Z AUTO 18003KT 10SM SCT110 19/05 A2991 RMK AO2 T01920051
KROS 172234Z AUTO 20004KT 10SM SCT120 20/05 A2991 RMK AO2 T02000047
KROS 172213Z AUTO 21004KT 10SM CLR 20/05 A2991 RMK AO2 T02020045
KROS 172154Z AUTO 20005KT 10SM CLR 21/05 A2992 RMK AO2 T02100046
KROS 172134Z AUTO 21007KT 10SM CLR 21/05 A2992 RMK AO2 T02100046
KROS 172113Z AUTO 22007KT 10SM CLR 21/05 A2992 RMK AO2 T02130050
KROS 172054Z AUTO 21006KT 10SM CLR 21/05 A2993 RMK AO2 T02130047
KROS 172034Z AUTO 21007KT 10SM CLR 21/04 A2994 RMK AO2 T02130044
KROS 172013Z AUTO 23006KT 10SM CLR 21/04 A2994 RMK AO2 T02140044
KROS 171954Z AUTO 22006KT 10SM CLR 21/04 A2993 RMK AO2 T02120042
KROS 171934Z AUTO 21006KT 10SM CLR 21/06 A2994 RMK AO2 T02110055